Scalby, United Kingdom
Current Conditions -  °F | °C
As of 9:50 PM on Wednesday 28 Jan 2015 (Local Time) from EGXV Reporting Station
Rain Showers Rain Showers  
Wind Chill: 25°   Ceiling: 2300
Heat Index: 36°   Visibility: 6mi
Dew Point: 32°   Wind: 18mph
Humidity: 87%   Direction: 250°WSW
Pressure: 29.26"   Gusts: NA
Location:  53.77°N, 0.72°W
Report Text: EGXV 282150Z AUTO 25016KT 9999 -SHRA FEW008/// BKN023/// 02/00 Q0991
Loading
Personal Weather Stations






























Interactive Weather Map New forecast layout! Learn more

10-Day Weather Forecast

Advertisements
Track Severe Weather on mobile